createdAt,value
2022-10-11T00:01:46.409Z,102247.25
2022-10-11T00:04:19.093Z,102244.59
2022-10-11T00:06:54.796Z,102243.66
2022-10-11T00:09:27.485Z,102241.78
2022-10-11T00:14:33.948Z,102246.78
2022-10-11T00:17:09.317Z,102249.31
2022-10-11T00:19:41.858Z,102252.72
2022-10-11T00:22:14.377Z,102246.44
2022-10-11T00:24:46.915Z,102250.81
2022-10-11T00:27:19.724Z,102248.00
2022-10-11T00:29:52.245Z,102261.00
2022-10-11T00:32:24.734Z,102261.78
2022-10-11T00:34:59.637Z,102258.97
2022-10-11T00:37:35.386Z,102258.81
2022-10-11T00:40:16.250Z,102266.56
2022-10-11T00:42:51.613Z,102263.78
2022-10-11T00:45:27.079Z,102272.44
2022-10-11T00:48:05.317Z,102271.44
2022-10-11T00:50:37.888Z,102269.66
2022-10-11T00:53:12.207Z,102274.81
2022-10-11T00:55:59.325Z,102277.41
2022-10-11T00:58:36.318Z,102275.63
2022-10-11T01:01:09.432Z,102273.78
2022-10-11T01:03:42.487Z,102278.16
2022-10-11T01:06:14.994Z,102288.63
2022-10-11T01:08:47.545Z,102279.72
2022-10-11T01:11:24.461Z,102282.19
2022-10-11T01:14:37.614Z,102280.38
2022-10-11T01:17:23.528Z,102279.53
2022-10-11T01:20:36.540Z,102281.22
2022-10-11T01:23:45.277Z,102292.50
2022-10-11T01:27:01.079Z,102281.94
2022-10-11T01:29:54.813Z,102283.53
2022-10-11T01:32:37.883Z,102293.91
2022-10-11T01:35:23.281Z,102285.91
2022-10-11T01:38:16.276Z,102284.03
2022-10-11T01:41:03.238Z,102292.69
2022-10-11T01:43:40.800Z,102290.91
2022-10-11T01:46:15.398Z,102290.03
2022-10-11T01:48:51.654Z,102290.97
2022-10-11T01:51:42.894Z,102300.47
2022-10-11T01:55:04.392Z,102296.91
2022-10-11T01:58:07.525Z,102290.63
2022-10-11T02:01:21.908Z,102294.09
2022-10-11T02:04:21.905Z,102304.56
2022-10-11T02:07:23.168Z,102301.81
2022-10-11T02:10:13.266Z,102296.50
2022-10-11T02:13:12.205Z,102302.56
2022-10-11T02:15:49.095Z,102308.53
2022-10-11T02:18:29.626Z,102297.13
2022-10-11T02:21:08.623Z,102315.38
2022-10-11T02:23:51.975Z,102310.16
2022-10-11T02:26:30.326Z,102308.38
2022-10-11T02:29:08.620Z,102309.25
2022-10-11T02:31:43.728Z,102299.53
2022-10-11T02:34:36.184Z,102304.75
2022-10-11T02:37:42.286Z,102304.63
2022-10-11T02:40:36.016Z,102306.25
2022-10-11T02:43:28.100Z,102312.25
2022-10-11T02:46:03.309Z,102316.53
2022-10-11T02:48:37.389Z,102308.56
2022-10-11T02:51:14.711Z,102312.03
2022-10-11T02:53:47.474Z,102305.84
2022-10-11T02:56:20.044Z,102312.81
2022-10-11T02:58:52.539Z,102304.91
2022-10-11T03:01:25.682Z,102310.06
2022-10-11T03:03:58.259Z,102315.25
2022-10-11T03:06:31.076Z,102317.84
2022-10-11T03:09:04.233Z,102319.53
2022-10-11T03:11:36.830Z,102321.19
2022-10-11T03:14:09.415Z,102327.19
2022-10-11T03:16:42.005Z,102326.22
2022-10-11T03:19:19.012Z,102328.81
2022-10-11T03:21:52.166Z,102320.84
2022-10-11T03:24:24.657Z,102326.00
2022-10-11T03:26:57.129Z,102325.13
2022-10-11T03:29:29.643Z,102331.19
2022-10-11T03:32:02.202Z,102331.13
2022-10-11T03:34:34.725Z,102329.31
2022-10-11T03:37:07.278Z,102338.00
2022-10-11T03:39:39.772Z,102331.81
2022-10-11T03:42:13.319Z,102335.22
2022-10-11T03:44:45.942Z,102329.09
2022-10-11T03:47:18.835Z,102337.78
2022-10-11T03:49:51.353Z,102338.69
2022-10-11T03:52:23.854Z,102338.56
2022-10-11T03:54:56.355Z,102345.41
2022-10-11T03:57:28.883Z,102347.97
2022-10-11T04:00:01.410Z,102348.81
2022-10-11T04:02:38.920Z,102347.91
2022-10-11T04:05:12.647Z,102354.00
2022-10-11T04:07:45.193Z,102353.91
2022-10-11T04:10:18.384Z,102359.13
2022-10-11T04:12:50.883Z,102362.69
2022-10-11T04:15:23.509Z,102353.91
2022-10-11T04:17:56.092Z,102358.28
2022-10-11T04:20:28.623Z,102353.13
2022-10-11T04:23:01.213Z,102360.13
2022-10-11T04:25:33.672Z,102360.97
2022-10-11T04:28:08.006Z,102361.88
2022-10-11T04:30:40.621Z,102366.22
2022-10-11T04:33:13.123Z,102372.34
2022-10-11T04:35:45.627Z,102365.34
2022-10-11T04:38:18.128Z,102375.81
2022-10-11T04:40:51.031Z,102382.78
2022-10-11T04:43:23.522Z,102376.63
2022-10-11T04:45:56.012Z,102374.81
2022-10-11T04:48:28.618Z,102380.03
2022-10-11T04:51:01.122Z,102379.84
2022-10-11T04:53:33.620Z,102381.59
2022-10-11T04:56:11.037Z,102387.66
2022-10-11T04:58:44.258Z,102391.22
2022-10-11T05:01:16.902Z,102385.16
2022-10-11T05:03:49.648Z,102377.31
2022-10-11T05:06:22.106Z,102379.84
2022-10-11T05:08:54.773Z,102392.94
2022-10-11T05:11:27.443Z,102389.38
2022-10-11T05:14:00.051Z,102392.78
2022-10-11T05:16:32.596Z,102386.63
2022-10-11T05:19:05.214Z,102394.56
2022-10-11T05:21:37.777Z,102392.06
2022-10-11T05:24:10.387Z,102395.63
2022-10-11T05:26:42.902Z,102390.38
2022-10-11T05:29:16.071Z,102397.31
2022-10-11T05:31:49.666Z,102392.88
2022-10-11T05:34:22.195Z,102395.38
2022-10-11T05:36:56.527Z,102399.63
2022-10-11T05:39:29.264Z,102399.53
2022-10-11T05:42:03.190Z,102402.94
2022-10-11T05:44:37.295Z,102414.16
2022-10-11T05:47:09.781Z,102413.16
2022-10-11T05:49:42.337Z,102415.75
2022-10-11T05:52:19.678Z,102413.13
2022-10-11T05:54:52.362Z,102409.84
2022-10-11T05:57:24.847Z,102413.34
2022-10-11T05:59:57.363Z,102415.19
2022-10-11T06:02:30.058Z,102422.13
2022-10-11T06:05:02.590Z,102421.38
2022-10-11T06:07:37.403Z,102428.44
2022-10-11T06:10:10.529Z,102425.09
2022-10-11T06:12:43.163Z,102434.72
2022-10-11T06:15:15.905Z,102440.84
2022-10-11T06:17:48.417Z,102432.16
2022-10-11T06:20:20.899Z,102434.03
2022-10-11T06:22:53.423Z,102437.59
2022-10-11T06:25:25.982Z,102453.41
2022-10-11T06:27:58.552Z,102449.91
2022-10-11T06:30:31.044Z,102450.88
2022-10-11T06:33:05.011Z,102451.94
2022-10-11T06:35:37.755Z,102450.34
2022-10-11T06:38:10.241Z,102452.28
2022-10-11T06:40:42.721Z,102455.19
2022-10-11T06:43:15.198Z,102454.56
2022-10-11T06:45:47.724Z,102457.44
2022-10-11T06:48:20.321Z,102457.72
2022-10-11T06:50:59.914Z,102451.91
2022-10-11T06:53:33.135Z,102464.50
2022-10-11T06:56:10.332Z,102464.84
2022-10-11T06:58:42.826Z,102465.09
2022-10-11T07:01:18.925Z,102467.13
2022-10-11T07:03:54.826Z,102471.78
2022-10-11T07:06:29.614Z,102471.28
2022-10-11T07:09:02.130Z,102470.75
2022-10-11T07:11:35.405Z,102467.63
2022-10-11T07:14:08.136Z,102471.47
2022-10-11T07:16:40.681Z,102484.03
2022-10-11T07:19:13.245Z,102482.59
2022-10-11T07:21:45.791Z,102481.13
2022-10-11T07:24:18.359Z,102482.38
2022-10-11T07:26:51.050Z,102489.66
2022-10-11T07:29:23.517Z,102489.09
2022-10-11T07:31:56.019Z,102494.72
2022-10-11T07:34:28.506Z,102491.50
2022-10-11T07:37:01.048Z,102501.38
2022-10-11T07:39:33.764Z,102495.53
2022-10-11T07:42:06.744Z,102493.28
2022-10-11T07:44:42.250Z,102491.88
2022-10-11T07:47:14.797Z,102498.28
2022-10-11T07:49:47.297Z,102500.38
2022-10-11T07:52:19.814Z,102492.88
2022-10-11T07:54:52.289Z,102496.75
2022-10-11T07:57:24.766Z,102495.34
2022-10-11T07:59:57.288Z,102506.16
2022-10-11T08:02:29.759Z,102504.63
2022-10-11T08:05:02.899Z,102496.25
2022-10-11T08:07:36.809Z,102504.38
2022-10-11T08:10:10.197Z,102501.09
2022-10-11T08:12:42.727Z,102505.81
2022-10-11T08:15:15.967Z,102506.09
2022-10-11T08:17:48.494Z,102503.63
2022-10-11T08:20:20.974Z,102513.53
2022-10-11T08:22:53.486Z,102515.50
2022-10-11T08:25:26.635Z,102515.75
2022-10-11T08:27:59.177Z,102511.59
2022-10-11T08:30:32.444Z,102507.50
2022-10-11T08:33:08.497Z,102515.63
2022-10-11T08:35:41.259Z,102510.59
2022-10-11T08:38:14.586Z,102518.75
2022-10-11T08:40:59.418Z,102519.91
2022-10-11T08:43:50.513Z,102517.47
2022-10-11T08:46:31.852Z,102513.31
2022-10-11T08:49:07.149Z,102518.78
2022-10-11T08:51:50.765Z,102518.03
2022-10-11T08:54:37.130Z,102515.59
2022-10-11T08:57:16.830Z,102521.09
2022-10-11T08:59:58.846Z,102521.22
2022-10-11T09:03:07.912Z,102533.66
2022-10-11T09:06:07.403Z,102526.78
2022-10-11T09:08:55.481Z,102537.53
2022-10-11T09:11:56.752Z,102529.75
2022-10-11T09:14:50.753Z,102526.28
2022-10-11T09:17:50.971Z,102535.16
2022-10-11T09:20:47.801Z,102537.06
2022-10-11T09:23:45.294Z,102541.53
2022-10-11T09:26:34.685Z,102531.88
2022-10-11T09:29:45.917Z,102537.22
2022-10-11T09:32:23.568Z,102536.41
2022-10-11T09:35:09.217Z,102529.31
2022-10-11T09:38:44.705Z,102533.75
2022-10-11T09:41:33.178Z,102535.56
2022-10-11T09:44:07.150Z,102534.72
2022-10-11T09:46:45.097Z,102530.31
2022-10-11T09:49:22.743Z,102532.19
2022-10-11T09:52:00.862Z,102531.31
2022-10-11T09:54:44.442Z,102524.25
2022-10-11T09:57:30.963Z,102533.13
2022-10-11T10:00:27.385Z,102534.91
2022-10-11T10:03:04.341Z,102534.94
2022-10-11T10:05:38.378Z,102524.34
2022-10-11T10:08:10.813Z,102528.81
2022-10-11T10:10:59.414Z,102534.13
2022-10-11T10:13:54.182Z,102534.16
2022-10-11T10:16:29.474Z,102536.84
2022-10-11T10:19:16.598Z,102532.41
2022-10-11T10:21:53.260Z,102522.69
2022-10-11T10:24:40.774Z,102521.78
2022-10-11T10:27:23.569Z,102521.81
2022-10-11T10:30:10.324Z,102521.81
2022-10-11T10:32:59.800Z,102520.03
2022-10-11T10:35:42.902Z,102528.00
2022-10-11T10:38:33.689Z,102516.47
2022-10-11T10:41:12.591Z,102526.22
2022-10-11T10:43:55.722Z,102525.31
2022-10-11T10:47:10.825Z,102520.91
2022-10-11T10:50:03.058Z,102520.00
2022-10-11T10:53:10.255Z,102514.66
2022-10-11T10:55:50.633Z,102516.38
2022-10-11T10:58:56.459Z,102518.19
2022-10-11T11:01:38.111Z,102510.13
2022-10-11T11:04:31.979Z,102514.53
2022-10-11T11:07:25.938Z,102509.19
2022-10-11T11:10:06.982Z,102510.91
2022-10-11T11:12:54.211Z,102518.00
2022-10-11T11:15:37.612Z,102516.22
2022-10-11T11:18:57.939Z,102506.41
2022-10-11T11:22:16.035Z,102501.94
2022-10-11T11:25:24.726Z,102502.78
2022-10-11T11:28:13.885Z,102502.75
2022-10-11T11:31:11.479Z,102498.28
2022-10-11T11:34:26.254Z,102502.66
2022-10-11T11:37:06.629Z,102498.22
2022-10-11T11:39:53.031Z,102493.88
2022-10-11T11:42:41.610Z,102486.66
2022-10-11T11:45:28.173Z,102484.88
2022-10-11T11:48:10.881Z,102483.00
2022-10-11T11:50:56.453Z,102482.09
2022-10-11T11:54:13.667Z,102477.63
2022-10-11T11:57:13.044Z,102473.28
2022-10-11T12:00:15.093Z,102471.50
2022-10-11T12:02:57.172Z,102471.44
2022-10-11T12:05:35.034Z,102467.84
2022-10-11T12:08:25.543Z,102455.44
2022-10-11T12:11:02.387Z,102451.78
2022-10-11T12:13:38.958Z,102457.06
2022-10-11T12:16:16.836Z,102444.72
2022-10-11T12:19:03.877Z,102449.91
2022-10-11T12:21:39.889Z,102451.63
2022-10-11T12:24:24.187Z,102447.19
2022-10-11T12:26:58.944Z,102444.47
2022-10-11T12:29:50.998Z,102447.97
2022-10-11T12:32:26.379Z,102451.56
2022-10-11T12:35:53.040Z,102450.56
2022-10-11T12:38:37.806Z,102444.28
2022-10-11T12:41:10.309Z,102450.38
2022-10-11T12:43:48.969Z,102438.69
2022-10-11T12:46:33.326Z,102442.22
2022-10-11T12:49:36.093Z,102438.69
2022-10-11T12:52:41.678Z,102427.84
2022-10-11T12:55:44.177Z,102430.56
2022-10-11T12:58:27.577Z,102426.84
2022-10-11T13:00:59.993Z,102429.47
2022-10-11T13:04:03.058Z,102432.06
2022-10-11T13:06:46.132Z,102434.59
2022-10-11T13:09:34.617Z,102429.31
2022-10-11T13:12:19.434Z,102424.75
2022-10-11T13:15:06.962Z,102417.50
2022-10-11T13:17:41.056Z,102420.97
2022-10-11T13:20:23.835Z,102420.94
2022-10-11T13:22:57.429Z,102415.75
2022-10-11T13:25:37.759Z,102412.41
2022-10-11T13:28:10.595Z,102419.69
2022-10-11T13:30:48.582Z,102413.75
2022-10-11T13:33:32.068Z,102407.50
2022-10-11T13:36:13.088Z,102411.78
2022-10-11T13:39:01.684Z,102407.38
2022-10-11T13:41:35.238Z,102403.66
2022-10-11T13:44:09.495Z,102411.69
2022-10-11T13:46:42.756Z,102404.47
2022-10-11T13:49:39.086Z,102414.28
2022-10-11T13:52:17.898Z,102410.06
2022-10-11T13:54:53.529Z,102413.69
2022-10-11T13:57:44.778Z,102404.97
2022-10-11T14:00:17.548Z,102402.53
2022-10-11T14:03:01.115Z,102407.06
2022-10-11T14:05:59.169Z,102410.72
2022-10-11T14:08:39.907Z,102402.69
2022-10-11T14:11:14.434Z,102406.19
2022-10-11T14:13:49.960Z,102404.53
2022-10-11T14:16:22.664Z,102411.75
2022-10-11T14:18:58.180Z,102406.47
2022-10-11T14:21:49.320Z,102403.00
2022-10-11T14:24:22.677Z,102401.25
2022-10-11T14:26:57.624Z,102387.94
2022-10-11T14:29:35.944Z,102395.84
2022-10-11T14:32:17.650Z,102389.53
2022-10-11T14:34:52.796Z,102386.81
2022-10-11T14:37:26.360Z,102379.66
2022-10-11T14:39:59.149Z,102383.06
2022-10-11T14:42:31.794Z,102378.53
2022-10-11T14:45:04.546Z,102385.44
2022-10-11T14:47:43.300Z,102384.47
2022-10-11T14:50:27.763Z,102381.78
2022-10-11T14:53:03.424Z,102387.03
2022-10-11T14:55:38.821Z,102378.16
2022-10-11T14:58:14.368Z,102380.75
2022-10-11T15:00:47.238Z,102386.78
2022-10-11T15:03:21.284Z,102380.47
2022-10-11T15:05:53.884Z,102375.13
2022-10-11T15:08:26.478Z,102375.84
2022-10-11T15:10:59.131Z,102369.63
2022-10-11T15:13:31.758Z,102369.81
2022-10-11T15:16:04.845Z,102367.06
2022-10-11T15:18:37.533Z,102365.41
2022-10-11T15:21:14.401Z,102358.19
2022-10-11T15:23:48.851Z,102365.38
2022-10-11T15:26:28.246Z,102358.25
2022-10-11T15:29:01.008Z,102356.50
2022-10-11T15:31:33.638Z,102355.66
2022-10-11T15:34:07.147Z,102351.38
2022-10-11T15:36:42.212Z,102350.56
2022-10-11T15:39:33.848Z,102350.69
2022-10-11T15:42:06.889Z,102340.94
2022-10-11T15:44:39.466Z,102344.63
2022-10-11T15:47:12.369Z,102342.97
2022-10-11T15:49:44.883Z,102350.09
2022-10-11T15:52:17.309Z,102338.63
2022-10-11T15:54:49.864Z,102349.34
2022-10-11T15:57:22.575Z,102340.59
2022-10-11T15:59:55.235Z,102344.22
2022-10-11T16:02:28.451Z,102346.97
2022-10-11T16:05:04.293Z,102338.19
2022-10-11T16:07:37.049Z,102342.63
2022-10-11T16:10:10.181Z,102342.59
2022-10-11T16:12:43.556Z,102337.97
2022-10-11T16:15:17.419Z,102337.78
2022-10-11T16:17:53.207Z,102338.63
2022-10-11T16:20:26.193Z,102336.00
2022-10-11T16:22:59.993Z,102337.97
2022-10-11T16:25:36.328Z,102341.78
2022-10-11T16:28:11.937Z,102349.13
2022-10-11T16:30:45.041Z,102340.50
2022-10-11T16:33:17.784Z,102346.03
2022-10-11T16:35:53.081Z,102348.84
2022-10-11T16:38:25.911Z,102345.44
2022-10-11T16:40:58.843Z,102351.72
2022-10-11T16:43:31.813Z,102345.63
2022-10-11T16:46:05.120Z,102348.34
2022-10-11T16:48:38.103Z,102351.03
2022-10-11T16:51:11.368Z,102344.00
2022-10-11T16:53:44.212Z,102345.78
2022-10-11T16:56:22.492Z,102341.38
2022-10-11T16:58:55.736Z,102346.66
2022-10-11T17:01:29.776Z,102351.06
2022-10-11T17:04:02.759Z,102360.75
2022-10-11T17:06:35.750Z,102356.28
2022-10-11T17:09:08.525Z,102355.34
2022-10-11T17:11:41.105Z,102357.09
2022-10-11T17:14:14.355Z,102356.13
2022-10-11T17:16:47.078Z,102353.44
2022-10-11T17:19:19.589Z,102362.22
2022-10-11T17:21:52.098Z,102358.63
2022-10-11T17:24:26.193Z,102362.13
2022-10-11T17:26:58.697Z,102368.25
2022-10-11T17:29:31.373Z,102370.84
2022-10-11T17:32:04.571Z,102376.97
2022-10-11T17:34:37.256Z,102371.63
2022-10-11T17:37:10.115Z,102373.34
2022-10-11T17:39:42.863Z,102367.13
2022-10-11T17:42:15.411Z,102374.09
2022-10-11T17:44:48.082Z,102377.56
2022-10-11T17:47:20.584Z,102378.41
2022-10-11T17:49:53.315Z,102379.28
2022-10-11T17:52:25.941Z,102385.41
2022-10-11T17:54:58.565Z,102385.34
2022-10-11T17:57:31.097Z,102377.31
2022-10-11T18:00:05.850Z,102377.25
2022-10-11T18:02:40.220Z,102385.94
2022-10-11T18:05:14.588Z,102380.53
2022-10-11T18:07:47.082Z,102376.00
2022-10-11T18:10:20.603Z,102383.84
2022-10-11T18:12:57.164Z,102376.72
2022-10-11T18:15:33.438Z,102380.97
2022-10-11T18:18:07.316Z,102380.00
2022-10-11T18:20:47.420Z,102379.00
2022-10-11T18:23:20.010Z,102372.78
2022-10-11T18:25:52.638Z,102372.69
2022-10-11T18:28:25.347Z,102372.63
2022-10-11T18:31:00.419Z,102376.09
2022-10-11T18:33:33.037Z,102372.50
2022-10-11T18:36:09.255Z,102379.44
2022-10-11T18:38:46.716Z,102367.03
2022-10-11T18:41:22.421Z,102372.22
2022-10-11T18:43:57.490Z,102365.09
2022-10-11T18:46:31.252Z,102365.88
2022-10-11T18:49:04.581Z,102366.69
2022-10-11T18:51:41.037Z,102367.44
2022-10-11T18:54:18.374Z,102368.25
2022-10-11T18:56:53.609Z,102364.59
2022-10-11T18:59:26.188Z,102364.47
2022-10-11T19:01:59.106Z,102369.69
2022-10-11T19:04:34.257Z,102365.22
2022-10-11T19:07:06.884Z,102365.97
2022-10-11T19:09:39.634Z,102367.63
2022-10-11T19:12:12.496Z,102362.28
2022-10-11T19:14:45.233Z,102367.44
2022-10-11T19:17:22.489Z,102362.09
2022-10-11T19:19:55.209Z,102361.19
2022-10-11T19:22:27.804Z,102361.13
2022-10-11T19:25:00.639Z,102350.53
2022-10-11T19:27:33.185Z,102350.44
2022-10-11T19:30:07.057Z,102348.56
2022-10-11T19:32:40.079Z,102351.09
2022-10-11T19:35:17.660Z,102353.66
2022-10-11T19:37:52.754Z,102354.47
2022-10-11T19:40:27.272Z,102349.19
2022-10-11T19:43:03.026Z,102346.50
2022-10-11T19:45:35.775Z,102351.69
2022-10-11T19:48:08.681Z,102351.66
2022-10-11T19:50:41.561Z,102358.59
2022-10-11T19:53:14.339Z,102351.56
2022-10-11T19:55:47.032Z,102350.56
2022-10-11T19:58:19.896Z,102349.66
2022-10-11T20:01:05.481Z,102356.59
2022-10-11T20:03:38.931Z,102348.66
2022-10-11T20:06:13.516Z,102351.31
2022-10-11T20:08:55.924Z,102346.91
2022-10-11T20:11:37.955Z,102348.56
2022-10-11T20:14:10.924Z,102343.22
2022-10-11T20:16:43.669Z,102334.38
2022-10-11T20:19:16.579Z,102343.00
2022-10-11T20:21:49.340Z,102338.44
2022-10-11T20:24:22.063Z,102341.84
2022-10-11T20:26:55.520Z,102341.75
2022-10-11T20:29:28.185Z,102338.13
2022-10-11T20:32:01.088Z,102341.56
2022-10-11T20:34:33.651Z,102337.97
2022-10-11T20:37:06.450Z,102343.19
2022-10-11T20:39:39.170Z,102340.50
2022-10-11T20:42:11.922Z,102342.16
2022-10-11T20:44:44.563Z,102337.75
2022-10-11T20:47:17.392Z,102352.59
2022-10-11T20:49:50.098Z,102356.91
2022-10-11T20:52:22.666Z,102360.38
2022-10-11T20:54:55.249Z,102353.28
2022-10-11T20:57:27.958Z,102358.53
2022-10-11T21:00:00.751Z,102356.69
2022-10-11T21:02:33.606Z,102359.25
2022-10-11T21:05:07.321Z,102363.56
2022-10-11T21:07:39.892Z,102357.28
2022-10-11T21:10:12.739Z,102352.88
2022-10-11T21:12:45.385Z,102350.19
2022-10-11T21:15:17.956Z,102352.78
2022-10-11T21:17:52.415Z,102352.72
2022-10-11T21:20:25.938Z,102350.84
2022-10-11T21:22:58.552Z,102349.91
2022-10-11T21:25:34.090Z,102355.94
2022-10-11T21:28:07.697Z,102354.97
2022-10-11T21:30:40.278Z,102354.03
2022-10-11T21:33:12.764Z,102352.19
2022-10-11T21:35:45.301Z,102353.88
2022-10-11T21:38:18.031Z,102356.41
2022-10-11T21:40:50.532Z,102351.06
2022-10-11T21:43:24.767Z,102354.47
2022-10-11T21:45:57.473Z,102354.38
2022-10-11T21:48:29.963Z,102362.16
2022-10-11T21:51:02.568Z,102353.44
2022-10-11T21:53:35.193Z,102355.97
2022-10-11T21:56:07.878Z,102347.22
2022-10-11T21:58:40.636Z,102352.44
2022-10-11T22:01:13.248Z,102351.50
2022-10-11T22:03:47.169Z,102354.94
2022-10-11T22:06:20.901Z,102354.84
2022-10-11T22:08:53.472Z,102351.19
2022-10-11T22:11:26.981Z,102357.19
2022-10-11T22:13:59.547Z,102350.06
2022-10-11T22:16:34.431Z,102346.50
2022-10-11T22:19:07.034Z,102347.34
2022-10-11T22:21:44.118Z,102347.25
2022-10-11T22:24:17.703Z,102336.69
2022-10-11T22:26:50.205Z,102336.66
2022-10-11T22:29:22.717Z,102336.59
2022-10-11T22:31:55.244Z,102338.28
2022-10-11T22:34:32.058Z,102333.78
2022-10-11T22:37:04.698Z,102326.66
2022-10-11T22:39:37.243Z,102323.06
2022-10-11T22:42:09.755Z,102329.94
2022-10-11T22:44:42.325Z,102321.13
2022-10-11T22:47:14.892Z,102327.19
2022-10-11T22:49:47.394Z,102326.19
2022-10-11T22:52:20.017Z,102325.28
2022-10-11T22:54:52.517Z,102323.44
2022-10-11T22:57:25.140Z,102323.34
2022-10-11T22:59:57.717Z,102311.09
2022-10-11T23:02:30.243Z,102318.91
2022-10-11T23:05:03.175Z,102321.44
2022-10-11T23:07:36.135Z,102308.28
2022-10-11T23:10:09.405Z,102317.03
2022-10-11T23:12:42.243Z,102325.75
2022-10-11T23:15:15.364Z,102317.88
2022-10-11T23:17:47.954Z,102317.91
2022-10-11T23:20:20.471Z,102312.66
2022-10-11T23:22:52.922Z,102311.72
2022-10-11T23:25:25.469Z,102322.16
2022-10-11T23:28:01.159Z,102323.84
2022-10-11T23:30:33.965Z,102318.50
2022-10-11T23:33:06.466Z,102319.28
2022-10-11T23:35:38.982Z,102315.81
2022-10-11T23:38:11.507Z,102313.19
2022-10-11T23:40:44.116Z,102318.41
2022-10-11T23:43:16.650Z,102315.84
2022-10-11T23:45:49.406Z,102320.19
2022-10-11T23:48:21.957Z,102318.44
2022-10-11T23:50:54.539Z,102320.19
2022-10-11T23:53:27.091Z,102324.63
2022-10-11T23:55:59.729Z,102319.38
2022-10-11T23:58:32.576Z,102317.66
